Accueil
METAR-TAF:

METAR-TAF

Aéroports :

Eastern Slopes Regional Airport

Fryeburg, Maine, États-Unis

latitude: 43-59-21N, longitude: 070-57-01W, altitude: 137 m

Observation

Le bulletin a été fait il y a 1 heure et 4 minutes, à 00:54 UTC
Vent calme
Température 18°C
Humidité 94%
Pression 1025 hPa
Visibilité: 16.1 km
Ciel couvert à une hauteur de 5500 ft

METAR: KIZG 160054Z AUTO 00000KT 10SM OVC055 18/17 A3027 RMK AO2 SLP251 T01780172

Heure: 21:58 (01:58 UTC)


TAF: absent

Observations et prévisions météorologiques de plus de 4000 aéroports (messages METAR et TAF).

Les stations disponibles sont représentées par des disques jaunes et rouges sur la carte.

Passer la souris dessus pour voir le nom de la station.

Cliquer dessus pour voir les observations et prévisions météorologiques.

Pour changer de carte: cliquez sur les boutons verts avec une croix noire pour zoomer, sur le bouton vert avec un tiret pour effectuer un zoom arrière, ou sur les flèches vertes pour les cartes adjacentes.


METAR-TAF: